createdAt,value
2023-09-27T00:00:01.851Z,101977.16
2023-09-27T00:02:28.988Z,102019.09
2023-09-27T00:04:56.067Z,102010.78
2023-09-27T00:07:22.958Z,102044.81
2023-09-27T00:09:49.629Z,102042.41
2023-09-27T00:12:16.828Z,102037.72
2023-09-27T00:14:43.451Z,101976.81
2023-09-27T00:17:10.162Z,102054.66
2023-09-27T00:19:36.892Z,102033.44
2023-09-27T00:22:03.633Z,102022.38
2023-09-27T00:24:30.217Z,102056.03
2023-09-27T00:26:56.851Z,101995.63
2023-09-27T00:29:23.578Z,102043.75
2023-09-27T00:31:50.297Z,102056.03
2023-09-27T00:34:17.037Z,102016.88
2023-09-27T00:36:43.744Z,101972.81
2023-09-27T00:39:10.458Z,102055.34
2023-09-27T00:41:37.002Z,102053.78
2023-09-27T00:44:03.741Z,102033.44
2023-09-27T00:46:30.623Z,102035.47
2023-09-27T00:48:57.789Z,102044.31
2023-09-27T00:51:24.431Z,102013.56
2023-09-27T00:53:51.218Z,102048.25
2023-09-27T00:56:18.127Z,102039.31
2023-09-27T00:58:44.932Z,102024.78
2023-09-27T01:01:14.190Z,101989.75
2023-09-27T01:03:42.029Z,102049.13
2023-09-27T01:06:09.660Z,102042.22
2023-09-27T01:08:36.356Z,101995.97
2023-09-27T01:11:05.473Z,102024.25
2023-09-27T01:13:32.852Z,102024.09
2023-09-27T01:15:59.472Z,102003.72
2023-09-27T01:18:27.617Z,102002.00
2023-09-27T01:20:54.346Z,101994.72
2023-09-27T01:23:21.048Z,101943.63
2023-09-27T01:25:51.909Z,101977.16
2023-09-27T01:28:22.331Z,102003.22
2023-09-27T01:30:48.946Z,102002.00
2023-09-27T01:33:15.620Z,101962.50
2023-09-27T01:35:44.905Z,101991.28
2023-09-27T01:38:13.888Z,101989.94
2023-09-27T01:40:45.696Z,101932.94
2023-09-27T01:43:13.113Z,101982.00
2023-09-27T01:45:40.252Z,101958.63
2023-09-27T01:48:07.619Z,102000.78
2023-09-27T01:50:36.140Z,101950.19
2023-09-27T01:53:04.392Z,102000.09
2023-09-27T01:55:31.294Z,102006.13
2023-09-27T01:57:58.075Z,101966.06
2023-09-27T02:00:24.804Z,101959.31
2023-09-27T02:02:56.893Z,101990.28
2023-09-27T02:05:24.685Z,102001.47
2023-09-27T02:07:51.462Z,101957.44
2023-09-27T02:10:18.096Z,101996.13
2023-09-27T02:12:45.891Z,101998.53
2023-09-27T02:15:14.376Z,101976.75
2023-09-27T02:17:41.618Z,102011.59
2023-09-27T02:20:11.391Z,101936.66
2023-09-27T02:22:39.321Z,101974.81
2023-09-27T02:25:12.811Z,102004.72
2023-09-27T02:27:40.808Z,102007.28
2023-09-27T02:30:12.403Z,101995.00
2023-09-27T02:32:42.087Z,101987.78
2023-09-27T02:35:10.496Z,101984.09
2023-09-27T02:37:38.055Z,102019.16
2023-09-27T02:40:14.798Z,101981.69
2023-09-27T02:42:42.792Z,102014.16
2023-09-27T02:45:10.566Z,102016.41
2023-09-27T02:47:41.615Z,102026.41
2023-09-27T02:50:12.297Z,102002.75
2023-09-27T02:52:41.780Z,101937.13
2023-09-27T02:55:12.289Z,102018.47
2023-09-27T02:57:39.844Z,102011.91
2023-09-27T03:00:07.878Z,102005.19
2023-09-27T03:02:35.386Z,101979.59
2023-09-27T03:05:05.833Z,102018.28
2023-09-27T03:07:35.236Z,102017.22
2023-09-27T03:10:09.861Z,102019.31
2023-09-27T03:12:36.620Z,102014.13
2023-09-27T03:15:04.377Z,102010.00
2023-09-27T03:17:31.389Z,102010.69
2023-09-27T03:19:58.178Z,101949.50
2023-09-27T03:22:24.775Z,101991.84
2023-09-27T03:24:52.490Z,102015.66
2023-09-27T03:27:19.991Z,102007.16
2023-09-27T03:29:47.522Z,101998.72
2023-09-27T03:32:14.137Z,102009.25
2023-09-27T03:34:40.774Z,102000.94
2023-09-27T03:37:07.413Z,102015.59
2023-09-27T03:39:37.031Z,102039.44
2023-09-27T03:42:04.316Z,102035.84
2023-09-27T03:44:31.034Z,102021.53
2023-09-27T03:46:57.842Z,102001.81
2023-09-27T03:49:24.620Z,102024.13
2023-09-27T03:51:51.263Z,102017.03
2023-09-27T03:54:17.820Z,101958.28
2023-09-27T03:56:44.386Z,102027.19
2023-09-27T03:59:11.293Z,102033.91
2023-09-27T04:01:38.339Z,102011.63
2023-09-27T04:04:06.349Z,102040.44
2023-09-27T04:06:33.039Z,102044.41
2023-09-27T04:08:59.546Z,102040.06
2023-09-27T04:11:26.224Z,102044.56
2023-09-27T04:13:53.066Z,102030.22
2023-09-27T04:16:19.769Z,102037.66
2023-09-27T04:18:46.443Z,102021.75
2023-09-27T04:21:13.516Z,102032.81
2023-09-27T04:23:42.507Z,102003.59
2023-09-27T04:26:10.438Z,102041.41
2023-09-27T04:28:37.259Z,102054.66
2023-09-27T04:31:05.220Z,101994.69
2023-09-27T04:33:32.882Z,102008.53
2023-09-27T04:36:00.720Z,102039.28
2023-09-27T04:38:27.680Z,102056.84
2023-09-27T04:40:54.318Z,102026.91
2023-09-27T04:43:21.383Z,102074.31
2023-09-27T04:45:50.225Z,102055.16
2023-09-27T04:48:16.992Z,102018.53
2023-09-27T04:50:43.703Z,102042.88
2023-09-27T04:53:10.941Z,102040.78
2023-09-27T04:55:37.668Z,102004.16
2023-09-27T04:58:04.559Z,102054.94
2023-09-27T05:00:31.275Z,101979.72
2023-09-27T05:02:58.261Z,102017.78
2023-09-27T05:05:28.550Z,101967.69
2023-09-27T05:07:55.313Z,101983.22
2023-09-27T05:10:21.979Z,102043.31
2023-09-27T05:13:01.677Z,101982.81
2023-09-27T05:15:28.603Z,102004.56
2023-09-27T05:17:55.363Z,101963.09
2023-09-27T05:20:22.020Z,102022.09
2023-09-27T05:22:48.765Z,101970.00
2023-09-27T05:25:34.181Z,101996.47
2023-09-27T05:28:00.856Z,101924.03
2023-09-27T05:30:27.900Z,102045.03
2023-09-27T05:32:54.631Z,102045.03
2023-09-27T05:35:21.543Z,101937.81
2023-09-27T05:37:48.119Z,102019.84
2023-09-27T05:40:14.926Z,101989.44
2023-09-27T05:42:42.022Z,102005.53
2023-09-27T05:45:12.242Z,102029.75
2023-09-27T05:47:40.424Z,102037.53
2023-09-27T05:50:13.656Z,102026.66
2023-09-27T05:52:45.366Z,102013.16
2023-09-27T05:55:12.768Z,102028.41
2023-09-27T05:57:39.958Z,102026.81
2023-09-27T06:00:15.873Z,102024.06
2023-09-27T06:02:42.553Z,102024.75
2023-09-27T06:05:09.671Z,102006.47
2023-09-27T06:07:36.609Z,102029.06
2023-09-27T06:10:03.898Z,101954.00
2023-09-27T06:12:30.444Z,102016.59
2023-09-27T06:14:57.092Z,102028.00
2023-09-27T06:17:24.289Z,101929.81
2023-09-27T06:19:51.013Z,101976.50
2023-09-27T06:22:18.148Z,101995.16
2023-09-27T06:24:47.175Z,101997.59
2023-09-27T06:27:13.794Z,101913.44
2023-09-27T06:29:40.617Z,101926.94
2023-09-27T06:32:07.793Z,101966.00
2023-09-27T06:34:36.925Z,102006.78
2023-09-27T06:37:03.552Z,101962.31
2023-09-27T06:39:30.385Z,101914.34
2023-09-27T06:41:57.067Z,102024.22
2023-09-27T06:44:23.712Z,102014.56
2023-09-27T06:46:51.100Z,102030.13
2023-09-27T06:49:18.131Z,101995.88
2023-09-27T06:51:45.350Z,102037.06
2023-09-27T06:54:12.008Z,102024.38
2023-09-27T06:56:38.777Z,102015.91
2023-09-27T06:59:06.758Z,101994.53
2023-09-27T07:01:33.744Z,102019.16
2023-09-27T07:04:00.677Z,101994.63
2023-09-27T07:06:27.301Z,101994.63
2023-09-27T07:08:59.216Z,102021.22
2023-09-27T07:11:26.310Z,102004.25
2023-09-27T07:13:53.442Z,102003.88
2023-09-27T07:16:29.889Z,101961.19
2023-09-27T07:19:00.781Z,102017.53
2023-09-27T07:21:29.331Z,102043.59
2023-09-27T07:23:56.368Z,102037.53
2023-09-27T07:26:23.255Z,102021.63
2023-09-27T07:28:50.501Z,102036.84
2023-09-27T07:31:18.385Z,102003.41
2023-09-27T07:33:46.487Z,101977.34
2023-09-27T07:36:13.493Z,101986.38
2023-09-27T07:38:41.156Z,102006.41
2023-09-27T07:41:11.681Z,102012.63
2023-09-27T07:43:38.344Z,102000.03
2023-09-27T07:46:08.490Z,102020.63
2023-09-27T07:48:39.481Z,102039.44
2023-09-27T07:51:13.163Z,102051.88
2023-09-27T07:53:40.390Z,101985.13
2023-09-27T07:56:10.752Z,101956.75
2023-09-27T07:58:38.434Z,101964.53
2023-09-27T08:01:06.143Z,102049.19
2023-09-27T08:03:33.266Z,102036.38
2023-09-27T08:06:00.252Z,102049.72
2023-09-27T08:08:55.941Z,102040.28
2023-09-27T08:11:23.172Z,102067.28
2023-09-27T08:13:50.057Z,102070.19
2023-09-27T08:16:17.464Z,102072.31
2023-09-27T08:18:44.515Z,102049.81
2023-09-27T08:21:11.496Z,102050.84
2023-09-27T08:23:38.663Z,102073.16
2023-09-27T08:26:05.363Z,102041.88
2023-09-27T08:28:33.128Z,102027.69
2023-09-27T08:31:59.278Z,102067.53
2023-09-27T08:34:26.393Z,102053.75
2023-09-27T08:36:53.769Z,102045.81
2023-09-27T08:40:08.816Z,102062.56
2023-09-27T08:42:35.725Z,102039.59
2023-09-27T08:45:03.807Z,101988.25
2023-09-27T08:47:32.574Z,102029.91
2023-09-27T08:49:59.835Z,102058.16
2023-09-27T08:52:28.651Z,102034.81
2023-09-27T08:54:55.198Z,102051.09
2023-09-27T08:57:24.591Z,102043.88
2023-09-27T08:59:51.493Z,102052.88
2023-09-27T09:02:20.071Z,102053.41
2023-09-27T09:04:47.302Z,102049.97
2023-09-27T09:07:14.112Z,102035.66
2023-09-27T09:09:41.902Z,102042.09
2023-09-27T09:12:10.205Z,102041.25
2023-09-27T09:14:45.980Z,102025.03
2023-09-27T09:17:18.976Z,102009.13
2023-09-27T09:20:16.274Z,102021.66
2023-09-27T09:22:44.355Z,102001.25
2023-09-27T09:25:11.113Z,102026.50
2023-09-27T09:27:38.992Z,102033.03
2023-09-27T09:30:11.209Z,102020.47
2023-09-27T09:32:50.590Z,102024.59
2023-09-27T09:35:46.875Z,101967.75
2023-09-27T09:38:23.154Z,102005.44
2023-09-27T09:41:01.574Z,101999.56
2023-09-27T09:43:37.478Z,101995.28
2023-09-27T09:46:07.817Z,101977.16
2023-09-27T09:48:35.904Z,101999.41
2023-09-27T09:51:08.586Z,101979.56
2023-09-27T09:53:42.414Z,101965.06
2023-09-27T09:58:49.045Z,101955.22
2023-09-27T10:01:22.438Z,101986.94
2023-09-27T10:03:54.361Z,101981.06
2023-09-27T10:06:36.463Z,101958.13
2023-09-27T10:09:16.106Z,101960.56
2023-09-27T10:11:47.354Z,101950.19
2023-09-27T10:14:17.185Z,101932.56
2023-09-27T10:16:44.784Z,101971.22
2023-09-27T10:19:11.886Z,101983.63
2023-09-27T10:22:04.045Z,101960.47
2023-09-27T10:24:30.808Z,101952.88
2023-09-27T10:26:57.518Z,101969.75
2023-09-27T10:29:24.157Z,101973.53
2023-09-27T10:31:57.409Z,101970.41
2023-09-27T10:34:29.926Z,101966.94
2023-09-27T10:37:10.416Z,101972.78
2023-09-27T10:40:20.446Z,101967.38
2023-09-27T10:42:47.284Z,101940.75
2023-09-27T10:45:14.123Z,101960.00
2023-09-27T10:47:41.684Z,101942.06
2023-09-27T10:50:10.442Z,101921.63
2023-09-27T10:52:38.535Z,101913.50
2023-09-27T10:55:12.968Z,101935.69
2023-09-27T10:57:42.927Z,101929.28
2023-09-27T11:00:14.099Z,101885.88
2023-09-27T11:02:43.025Z,101930.25
2023-09-27T11:05:10.638Z,101905.53
2023-09-27T11:07:49.872Z,101922.53
2023-09-27T11:10:31.905Z,101924.38
2023-09-27T11:13:13.299Z,101889.03
2023-09-27T11:15:41.158Z,101902.16
2023-09-27T11:18:14.280Z,101898.16
2023-09-27T11:20:41.391Z,101880.38
2023-09-27T11:23:08.414Z,101864.72
2023-09-27T11:25:37.446Z,101884.72
2023-09-27T11:28:04.775Z,101877.66
2023-09-27T11:30:33.675Z,101887.31
2023-09-27T11:33:06.716Z,101880.75
2023-09-27T11:35:33.845Z,101875.16
2023-09-27T11:38:14.621Z,101865.69
2023-09-27T11:40:44.768Z,101861.00
2023-09-27T11:43:13.373Z,101844.69
2023-09-27T11:45:45.120Z,101825.13
2023-09-27T11:48:12.090Z,101823.47
2023-09-27T11:50:39.083Z,101754.31
2023-09-27T11:53:06.198Z,101807.63
2023-09-27T11:55:32.934Z,101826.16
2023-09-27T11:58:00.480Z,101819.06
2023-09-27T12:00:27.501Z,101772.91
2023-09-27T12:02:57.975Z,101810.00
2023-09-27T12:05:26.219Z,101790.94
2023-09-27T12:07:53.840Z,101784.25
2023-09-27T12:10:20.795Z,101800.06
2023-09-27T12:12:47.494Z,101794.50
2023-09-27T12:15:14.209Z,101772.50
2023-09-27T12:17:40.883Z,101780.91
2023-09-27T12:20:15.574Z,101802.97
2023-09-27T12:22:43.635Z,101789.88
2023-09-27T12:25:11.172Z,101773.81
2023-09-27T12:27:37.808Z,101795.44
2023-09-27T12:30:06.457Z,101788.34
2023-09-27T12:32:33.352Z,101741.22
2023-09-27T12:35:00.004Z,101785.16
2023-09-27T12:37:27.085Z,101729.63
2023-09-27T12:39:53.703Z,101769.09
2023-09-27T12:42:20.402Z,101731.38
2023-09-27T12:44:47.377Z,101733.75
2023-09-27T12:47:16.131Z,101758.19
2023-09-27T12:49:42.716Z,101762.44
2023-09-27T12:52:09.179Z,101761.19
2023-09-27T12:54:35.712Z,101699.28
2023-09-27T12:57:02.322Z,101711.47
2023-09-27T12:59:29.071Z,101698.66
2023-09-27T13:01:56.868Z,101696.50
2023-09-27T13:04:23.638Z,101745.53
2023-09-27T13:06:50.420Z,101733.09
2023-09-27T13:09:18.755Z,101713.84
2023-09-27T13:11:45.521Z,101700.13
2023-09-27T13:14:12.338Z,101747.22
2023-09-27T13:16:38.954Z,101725.84
2023-09-27T13:19:05.881Z,101726.06
2023-09-27T13:21:32.384Z,101731.00
2023-09-27T13:23:59.067Z,101717.28
2023-09-27T13:26:27.382Z,101715.97
2023-09-27T13:28:54.556Z,101697.34
2023-09-27T13:31:21.939Z,101688.13
2023-09-27T13:33:58.929Z,101700.75
2023-09-27T13:36:38.199Z,101706.50
2023-09-27T13:39:07.261Z,101701.13
2023-09-27T13:41:43.181Z,101694.03
2023-09-27T13:44:13.389Z,101686.09
2023-09-27T13:46:40.567Z,101698.25
2023-09-27T13:49:07.791Z,101691.59
2023-09-27T13:51:37.381Z,101703.97
2023-09-27T13:54:05.697Z,101643.63
2023-09-27T13:56:32.341Z,101702.03
2023-09-27T13:58:58.947Z,101694.06
2023-09-27T14:01:26.005Z,101692.13
2023-09-27T14:03:54.309Z,101680.13
2023-09-27T14:06:24.404Z,101615.59
2023-09-27T14:08:56.337Z,101602.31
2023-09-27T14:11:24.160Z,101646.97
2023-09-27T14:13:51.117Z,101693.22
2023-09-27T14:16:18.147Z,101598.41
2023-09-27T14:18:45.507Z,101685.66
2023-09-27T14:21:14.022Z,101680.06
2023-09-27T14:23:43.575Z,101673.88
2023-09-27T14:26:12.006Z,101668.56
2023-09-27T14:28:38.873Z,101615.03
2023-09-27T14:31:06.713Z,101647.72
2023-09-27T14:33:35.057Z,101633.25
2023-09-27T14:36:05.333Z,101638.81
2023-09-27T14:38:35.990Z,101653.00
2023-09-27T14:41:10.159Z,101653.22
2023-09-27T14:43:40.874Z,101651.31
2023-09-27T14:46:12.068Z,101625.25
2023-09-27T14:48:39.762Z,101645.41
2023-09-27T14:51:07.175Z,101632.38
2023-09-27T14:53:33.917Z,101616.09
2023-09-27T14:56:08.061Z,101647.38
2023-09-27T14:58:35.499Z,101650.81
2023-09-27T15:01:03.758Z,101611.44
2023-09-27T15:03:30.613Z,101605.88
2023-09-27T15:05:57.547Z,101618.09
2023-09-27T15:08:24.277Z,101640.97
2023-09-27T15:10:51.076Z,101588.81
2023-09-27T15:13:18.505Z,101640.38
2023-09-27T15:15:46.529Z,101572.13
2023-09-27T15:18:15.993Z,101623.25
2023-09-27T15:20:43.131Z,101598.22
2023-09-27T15:23:13.061Z,101619.81
2023-09-27T15:25:40.196Z,101588.16
2023-09-27T15:28:06.879Z,101625.19
2023-09-27T15:30:34.658Z,101543.47
2023-09-27T15:33:01.308Z,101585.81
2023-09-27T15:35:28.068Z,101611.94
2023-09-27T15:37:57.124Z,101511.59
2023-09-27T15:40:24.794Z,101571.91
2023-09-27T15:42:55.478Z,101575.53
2023-09-27T15:45:23.011Z,101570.84
2023-09-27T15:47:50.554Z,101599.53
2023-09-27T15:50:17.521Z,101542.81
2023-09-27T15:52:44.337Z,101497.91
2023-09-27T15:55:11.912Z,101596.09
2023-09-27T15:57:41.695Z,101558.22
2023-09-27T16:00:12.511Z,101593.97
2023-09-27T16:02:40.014Z,101560.78
2023-09-27T16:05:09.689Z,101528.50
2023-09-27T16:07:36.360Z,101511.81
2023-09-27T16:10:05.360Z,101571.06
2023-09-27T16:12:32.196Z,101571.91
2023-09-27T16:14:58.842Z,101514.38
2023-09-27T16:17:56.324Z,101569.75
2023-09-27T16:20:22.976Z,101574.47
2023-09-27T16:22:50.404Z,101529.75
2023-09-27T16:25:17.566Z,101553.09
2023-09-27T16:27:44.419Z,101579.38
2023-09-27T16:30:12.483Z,101472.47
2023-09-27T16:32:40.985Z,101540.25
2023-09-27T16:35:08.142Z,101502.81
2023-09-27T16:37:35.147Z,101551.56
2023-09-27T16:40:02.421Z,101547.75
2023-09-27T16:42:29.338Z,101568.69
2023-09-27T16:44:56.274Z,101552.22
2023-09-27T16:47:22.937Z,101490.44
2023-09-27T16:49:50.280Z,101534.91
2023-09-27T16:52:17.110Z,101521.84
2023-09-27T16:54:44.227Z,101469.25
2023-09-27T16:57:11.588Z,101451.50
2023-09-27T16:59:38.371Z,101490.19
2023-09-27T17:02:05.235Z,101504.53
2023-09-27T17:04:34.991Z,101541.09
2023-09-27T17:07:02.923Z,101466.41
2023-09-27T17:09:29.825Z,101495.31
2023-09-27T17:11:57.978Z,101520.56
2023-09-27T17:14:24.622Z,101530.63
2023-09-27T17:16:51.521Z,101505.81
2023-09-27T17:19:25.360Z,101522.91
2023-09-27T17:21:54.329Z,101435.63
2023-09-27T17:24:22.318Z,101465.16
2023-09-27T17:26:49.523Z,101471.13
2023-09-27T17:29:17.196Z,101499.81
2023-09-27T17:31:44.448Z,101535.34
2023-09-27T17:34:14.658Z,101469.19
2023-09-27T17:36:41.310Z,101494.88
2023-09-27T17:39:08.249Z,101508.81
2023-09-27T17:41:35.047Z,101497.66
2023-09-27T17:44:01.770Z,101513.50
2023-09-27T17:46:29.261Z,101480.97
2023-09-27T17:49:01.151Z,101491.41
2023-09-27T17:51:28.200Z,101513.31
2023-09-27T17:53:55.044Z,101506.22
2023-09-27T17:56:21.914Z,101467.28
2023-09-27T17:58:48.874Z,101484.38
2023-09-27T18:03:42.748Z,101422.81
2023-09-27T18:06:14.093Z,101480.97
2023-09-27T18:08:41.146Z,101434.78
2023-09-27T18:11:09.897Z,101465.13
2023-09-27T18:13:36.872Z,101463.41
2023-09-27T18:16:04.015Z,101475.16
2023-09-27T18:18:30.707Z,101437.72
2023-09-27T18:20:57.306Z,101473.91
2023-09-27T18:23:23.927Z,101463.84
2023-09-27T18:25:50.635Z,101435.59
2023-09-27T18:28:17.807Z,101476.47
2023-09-27T18:30:44.442Z,101474.09
2023-09-27T18:33:11.162Z,101448.19
2023-09-27T18:35:37.778Z,101491.19
2023-09-27T18:38:04.510Z,101491.19
2023-09-27T18:40:31.432Z,101473.19
2023-09-27T18:42:58.051Z,101441.56
2023-09-27T18:45:24.717Z,101491.59
2023-09-27T18:47:52.794Z,101439.63
2023-09-27T18:50:20.351Z,101435.34
2023-09-27T18:52:47.401Z,101421.22
2023-09-27T18:55:14.134Z,101446.66
2023-09-27T18:57:40.781Z,101477.69
2023-09-27T19:00:09.026Z,101459.94
2023-09-27T19:02:35.974Z,101460.81
2023-09-27T19:05:02.805Z,101419.31
2023-09-27T19:07:29.553Z,101433.66
2023-09-27T19:09:56.994Z,101458.44
2023-09-27T19:12:24.012Z,101413.69
2023-09-27T19:14:50.751Z,101439.41
2023-09-27T19:17:17.386Z,101447.25
2023-09-27T19:19:45.144Z,101472.09
2023-09-27T19:22:12.152Z,101431.66
2023-09-27T19:24:39.254Z,101476.34
2023-09-27T19:27:05.819Z,101429.13
2023-09-27T19:29:33.340Z,101438.53
2023-09-27T19:32:00.101Z,101454.75
2023-09-27T19:34:26.853Z,101437.25
2023-09-27T19:36:53.465Z,101433.19
2023-09-27T19:39:20.445Z,101419.97
2023-09-27T19:41:47.134Z,101402.59
2023-09-27T19:44:14.114Z,101433.19
2023-09-27T19:46:40.900Z,101433.38
2023-09-27T19:49:07.631Z,101420.75
2023-09-27T19:51:34.286Z,101443.63
2023-09-27T19:54:01.778Z,101445.56
2023-09-27T19:56:28.398Z,101437.44
2023-09-27T19:58:55.114Z,101402.97
2023-09-27T20:01:35.596Z,101421.59
2023-09-27T20:04:02.942Z,101357.63
2023-09-27T20:06:31.175Z,101401.28
2023-09-27T20:08:57.849Z,101420.53
2023-09-27T20:11:24.653Z,101389.75
2023-09-27T20:13:51.508Z,101404.09
2023-09-27T20:16:18.224Z,101400.22
2023-09-27T20:18:45.662Z,101404.03
2023-09-27T20:21:12.286Z,101383.13
2023-09-27T20:23:39.749Z,101384.38
2023-09-27T20:26:06.949Z,101350.41
2023-09-27T20:28:33.746Z,101341.88
2023-09-27T20:31:00.442Z,101370.50
2023-09-27T20:33:27.330Z,101358.59
2023-09-27T20:35:53.979Z,101336.78
2023-09-27T20:38:20.598Z,101351.53
2023-09-27T20:40:47.269Z,101293.84
2023-09-27T20:43:13.971Z,101328.47
2023-09-27T20:45:41.111Z,101340.41
2023-09-27T20:48:07.867Z,101357.88
2023-09-27T20:50:34.539Z,101370.06
2023-09-27T20:53:01.186Z,101368.56
2023-09-27T20:55:27.881Z,101340.56
2023-09-27T20:57:54.572Z,101370.50
2023-09-27T21:00:23.546Z,101352.31
2023-09-27T21:02:50.507Z,101364.50
2023-09-27T21:05:17.374Z,101334.16
2023-09-27T21:07:44.140Z,101345.72
2023-09-27T21:10:10.977Z,101339.94
2023-09-27T21:12:37.630Z,101359.38
2023-09-27T21:15:04.706Z,101350.84
2023-09-27T21:17:31.809Z,101351.06
2023-09-27T21:19:58.571Z,101352.31
2023-09-27T21:22:25.302Z,101301.00
2023-09-27T21:24:51.936Z,101275.94
2023-09-27T21:27:18.749Z,101332.84
2023-09-27T21:29:45.349Z,101321.09
2023-09-27T21:32:12.086Z,101320.63
2023-09-27T21:34:38.749Z,101321.31
2023-09-27T21:37:05.395Z,101324.31
2023-09-27T21:39:32.042Z,101317.53
2023-09-27T21:41:58.743Z,101291.03
2023-09-27T21:44:25.473Z,101213.72
2023-09-27T21:46:53.773Z,101229.09
2023-09-27T21:49:21.280Z,101261.16
2023-09-27T21:51:48.944Z,101244.28
2023-09-27T21:54:16.029Z,101216.75
2023-09-27T21:56:43.733Z,101246.66
2023-09-27T21:59:10.433Z,101231.66
2023-09-27T22:01:38.128Z,101284.63
2023-09-27T22:04:06.911Z,101285.25
2023-09-27T22:06:33.562Z,101298.44
2023-09-27T22:09:00.408Z,101280.22
2023-09-27T22:11:27.013Z,101323.00
2023-09-27T22:13:54.769Z,101325.72
2023-09-27T22:16:26.201Z,101342.16
2023-09-27T22:18:52.802Z,101338.34
2023-09-27T22:21:31.794Z,101324.88
2023-09-27T22:24:11.424Z,101346.06
2023-09-27T22:26:56.337Z,101300.31
2023-09-27T22:29:22.941Z,101287.00
2023-09-27T22:31:49.557Z,101339.69
2023-09-27T22:34:38.808Z,101330.03
2023-09-27T22:37:06.004Z,101300.31
2023-09-27T22:39:32.729Z,101313.56
2023-09-27T22:42:03.392Z,101338.59
2023-09-27T22:44:30.014Z,101325.50
2023-09-27T22:47:00.135Z,101278.03
2023-09-27T22:49:27.480Z,101231.63
2023-09-27T22:51:54.337Z,101243.41
2023-09-27T22:54:22.829Z,101332.19
2023-09-27T22:56:52.097Z,101329.81
2023-09-27T22:59:18.784Z,101329.81
2023-09-27T23:01:47.562Z,101334.72
2023-09-27T23:04:17.249Z,101335.97
2023-09-27T23:07:01.220Z,101296.59
2023-09-27T23:09:35.347Z,101329.09
2023-09-27T23:12:17.965Z,101329.97
2023-09-27T23:15:08.350Z,101353.25
2023-09-27T23:17:56.035Z,101350.69
2023-09-27T23:20:29.605Z,101321.88
2023-09-27T23:22:57.817Z,101323.13
2023-09-27T23:25:40.976Z,101345.75
2023-09-27T23:28:08.021Z,101341.09
2023-09-27T23:30:34.741Z,101335.09
2023-09-27T23:33:01.638Z,101339.97
2023-09-27T23:35:31.440Z,101319.22
2023-09-27T23:38:30.789Z,101320.69
2023-09-27T23:41:00.434Z,101326.66
2023-09-27T23:43:40.997Z,101334.44
2023-09-27T23:46:15.086Z,101343.84
2023-09-27T23:48:43.375Z,101332.94
2023-09-27T23:51:09.977Z,101335.06
2023-09-27T23:53:37.399Z,101324.84
2023-09-27T23:56:07.843Z,101281.13
2023-09-27T23:58:35.722Z,101269.53
